createdAt,value
2018-09-23T00:01:01.294Z,1012.35
2018-09-23T00:02:10.968Z,1012.32
2018-09-23T00:03:20.405Z,1012.32
2018-09-23T00:04:29.595Z,1012.25
2018-09-23T00:05:38.751Z,1012.18
2018-09-23T00:06:48.165Z,1012.16
2018-09-23T00:07:57.075Z,1012.11
2018-09-23T00:09:06.805Z,1012.1
2018-09-23T00:10:16.184Z,1012.1
2018-09-23T00:11:25.353Z,1012.15
2018-09-23T00:12:34.822Z,1012.16
2018-09-23T00:13:44.244Z,1012.14
2018-09-23T00:14:53.649Z,1012.16
2018-09-23T00:16:03.058Z,1012.18
2018-09-23T00:17:12.995Z,1012.15
2018-09-23T00:18:22.162Z,1012.11
2018-09-23T00:19:31.566Z,1012.08
2018-09-23T00:20:40.741Z,1012.02
2018-09-23T00:21:50.402Z,1011.97
2018-09-23T00:22:59.598Z,1011.89
2018-09-23T00:24:08.499Z,1011.85
2018-09-23T00:25:18.005Z,1011.79
2018-09-23T00:26:27.684Z,1011.7
2018-09-23T00:27:37.370Z,1011.64
2018-09-23T00:28:46.574Z,1011.63
2018-09-23T00:29:55.736Z,1011.61
2018-09-23T00:31:05.673Z,1011.61
2018-09-23T00:32:15.101Z,1011.61
2018-09-23T00:33:25.095Z,1011.61
2018-09-23T00:34:34.778Z,1011.6
2018-09-23T00:35:43.936Z,1011.57
2018-09-23T00:36:53.355Z,1011.54
2018-09-23T00:38:02.256Z,1011.51
2018-09-23T00:39:11.928Z,1011.51
2018-09-23T00:40:21.859Z,1011.56
2018-09-23T00:41:31.307Z,1011.6
2018-09-23T00:42:40.544Z,1011.59
2018-09-23T00:43:49.969Z,1011.56
2018-09-23T00:44:59.645Z,1011.52
2018-09-23T00:46:09.324Z,1011.47
2018-09-23T00:47:18.747Z,1011.46
2018-09-23T00:48:28.430Z,1011.47
2018-09-23T00:49:37.341Z,1011.39
2018-09-23T00:50:47.049Z,1011.43
2018-09-23T00:51:56.467Z,1011.31
2018-09-23T00:53:06.155Z,1011.29
2018-09-23T00:54:15.601Z,1011.22
2018-09-23T00:55:25.546Z,1011.09
2018-09-23T00:56:35.218Z,1011.02
2018-09-23T00:57:44.628Z,1010.97
2018-09-23T00:58:54.068Z,1010.92
2018-09-23T01:00:03.228Z,1010.94
2018-09-23T01:01:11.893Z,1010.9
2018-09-23T01:02:21.601Z,1010.96
2018-09-23T01:03:31.273Z,1010.91
2018-09-23T01:04:40.698Z,1010.92
2018-09-23T01:05:49.857Z,1010.87
2018-09-23T01:06:59.527Z,1010.87
2018-09-23T01:08:08.691Z,1010.89
2018-09-23T01:09:17.850Z,1010.95
2018-09-23T01:10:27.554Z,1011
2018-09-23T01:11:36.992Z,1010.97
2018-09-23T01:12:45.892Z,1010.99
2018-09-23T01:13:55.571Z,1010.92
2018-09-23T01:15:05.245Z,1010.87
2018-09-23T01:16:15.213Z,1010.79
2018-09-23T01:17:25.219Z,1010.76
2018-09-23T01:18:34.895Z,1010.68
2018-09-23T01:19:44.063Z,1010.62
2018-09-23T01:20:53.239Z,1010.55
2018-09-23T01:22:02.144Z,1010.57
2018-09-23T01:23:10.789Z,1010.6
2018-09-23T01:24:19.964Z,1010.61
2018-09-23T01:25:29.392Z,1010.66
2018-09-23T01:26:39.066Z,1010.66
2018-09-23T01:27:48.750Z,1010.62
2018-09-23T01:28:57.921Z,1010.63
2018-09-23T01:30:07.346Z,1010.47
2018-09-23T01:31:16.765Z,1010.4
2018-09-23T01:32:26.492Z,1010.39
2018-09-23T01:33:35.919Z,1010.42
2018-09-23T01:34:45.373Z,1010.42
2018-09-23T01:35:55.046Z,1010.46
2018-09-23T01:37:04.497Z,1010.5
2018-09-23T01:38:13.926Z,1010.48
2018-09-23T01:39:23.362Z,1010.48
2018-09-23T01:40:32.522Z,1010.45
2018-09-23T01:41:42.201Z,1010.46
2018-09-23T01:42:51.360Z,1010.48
2018-09-23T01:44:00.525Z,1010.53
2018-09-23T01:45:09.432Z,1010.58
2018-09-23T01:46:19.381Z,1010.62
2018-09-23T01:47:28.287Z,1010.61
2018-09-23T01:48:37.457Z,1010.57
2018-09-23T01:49:47.132Z,1010.4
2018-09-23T01:50:56.029Z,1010.22
2018-09-23T01:52:05.199Z,1010.07
2018-09-23T01:53:14.385Z,1010
2018-09-23T01:54:23.806Z,1009.97
2018-09-23T01:55:33.223Z,1010.07
2018-09-23T01:56:42.893Z,1010.04
2018-09-23T01:57:52.569Z,1010.1
2018-09-23T01:59:01.994Z,1010.09
2018-09-23T02:00:11.413Z,1010.11
2018-09-23T02:01:20.836Z,1010.05
2018-09-23T02:02:30.003Z,1009.95
2018-09-23T02:03:39.174Z,1009.91
2018-09-23T02:04:48.840Z,1009.86
2018-09-23T02:05:58.688Z,1009.82
2018-09-23T02:07:08.097Z,1009.83
2018-09-23T02:08:17.255Z,1009.85
2018-09-23T02:09:26.164Z,1009.82
2018-09-23T02:10:35.330Z,1009.76
2018-09-23T02:11:45.015Z,1009.7
2018-09-23T02:12:54.945Z,1009.65
2018-09-23T02:14:04.110Z,1009.64
2018-09-23T02:15:13.793Z,1009.65
2018-09-23T02:16:23.232Z,1009.65
2018-09-23T02:17:32.904Z,1009.67
2018-09-23T02:18:42.088Z,1009.69
2018-09-23T02:19:51.776Z,1009.64
2018-09-23T02:21:01.229Z,1009.65
2018-09-23T02:22:10.492Z,1009.67
2018-09-23T02:23:19.957Z,1009.61
2018-09-23T02:24:29.642Z,1009.56
2018-09-23T02:25:39.604Z,1009.54
2018-09-23T02:26:49.020Z,1009.54
2018-09-23T02:27:58.194Z,1009.52
2018-09-23T02:29:07.615Z,1009.53
2018-09-23T02:30:16.515Z,1009.53
2018-09-23T02:31:25.200Z,1009.49
2018-09-23T02:32:34.385Z,1009.53
2018-09-23T02:33:43.290Z,1009.59
2018-09-23T02:34:51.939Z,1009.6
2018-09-23T02:36:01.616Z,1009.6
2018-09-23T02:37:11.539Z,1009.59
2018-09-23T02:38:21.221Z,1009.52
2018-09-23T02:39:31.153Z,1009.55
2018-09-23T02:40:40.574Z,1009.53
2018-09-23T02:41:50.004Z,1009.49
2018-09-23T02:42:58.923Z,1009.45
2018-09-23T02:44:08.640Z,1009.4
2018-09-23T02:45:17.795Z,1009.37
2018-09-23T02:46:27.233Z,1009.26
2018-09-23T02:47:36.399Z,1009.22
2018-09-23T02:48:45.577Z,1009.14
2018-09-23T02:49:55.289Z,1009.12
2018-09-23T02:51:05.004Z,1009.16
2018-09-23T02:52:14.691Z,1009.22
2018-09-23T02:53:24.358Z,1009.15
2018-09-23T02:54:33.784Z,1009.16
2018-09-23T02:55:42.949Z,1009.25
2018-09-23T02:56:52.137Z,1009.22
2018-09-23T02:58:01.822Z,1009.21
2018-09-23T02:59:11.511Z,1009.15
2018-09-23T03:00:20.930Z,1009.1
2018-09-23T03:01:30.602Z,1009
2018-09-23T03:02:40.043Z,1008.91
2018-09-23T03:03:49.711Z,1008.81
2018-09-23T03:04:59.638Z,1008.8
2018-09-23T03:06:09.046Z,1008.79
2018-09-23T03:07:18.208Z,1008.79
2018-09-23T03:08:27.892Z,1008.74
2018-09-23T03:09:37.558Z,1008.74
2018-09-23T03:10:46.742Z,1008.7
2018-09-23T03:11:55.896Z,1008.68
2018-09-23T03:13:05.309Z,1008.72
2018-09-23T03:14:15.259Z,1008.68
2018-09-23T03:15:25.210Z,1008.7
2018-09-23T03:16:34.615Z,1008.67
2018-09-23T03:17:44.275Z,1008.62
2018-09-23T03:18:54.026Z,1008.59
2018-09-23T03:20:03.717Z,1008.55
2018-09-23T03:21:12.879Z,1008.49
2018-09-23T03:22:22.059Z,1008.44
2018-09-23T03:23:31.488Z,1008.45
2018-09-23T03:24:40.414Z,1008.35
2018-09-23T03:25:50.082Z,1008.3
2018-09-23T03:26:59.520Z,1008.36
2018-09-23T03:28:09.193Z,1008.32
2018-09-23T03:29:18.880Z,1008.33
2018-09-23T03:30:28.299Z,1008.29
2018-09-23T03:31:37.743Z,1008.24
2018-09-23T03:32:47.685Z,1008.22
2018-09-23T03:33:57.123Z,1008.26
2018-09-23T03:35:06.790Z,1008.28
2018-09-23T03:36:16.221Z,1008.27
2018-09-23T03:37:25.918Z,1008.32
2018-09-23T03:38:35.850Z,1008.24
2018-09-23T03:39:45.536Z,1008.25
2018-09-23T03:40:55.497Z,1008.25
2018-09-23T03:42:04.912Z,1008.27
2018-09-23T03:43:14.593Z,1008.29
2018-09-23T03:44:24.289Z,1008.27
2018-09-23T03:45:33.973Z,1008.24
2018-09-23T03:46:43.900Z,1008.29
2018-09-23T03:47:53.584Z,1008.28
2018-09-23T03:49:03.266Z,1008.22
2018-09-23T03:50:13.211Z,1008.2
2018-09-23T03:51:22.646Z,1008.17
2018-09-23T03:52:32.060Z,1008.16
2018-09-23T03:53:42.011Z,1008.17
2018-09-23T03:54:51.681Z,1008.21
2018-09-23T03:56:01.384Z,1008.26
2018-09-23T03:57:10.795Z,1008.26
2018-09-23T03:58:20.485Z,1008.22
2018-09-23T03:59:30.452Z,1008.25
2018-09-23T04:00:40.455Z,1008.17
2018-09-23T04:01:49.879Z,1008.14
2018-09-23T04:02:59.564Z,1008.06
2018-09-23T04:04:09.268Z,1008.02
2018-09-23T04:05:18.704Z,1007.92
2018-09-23T04:06:27.353Z,1007.9
2018-09-23T04:07:37.281Z,1007.77
2018-09-23T04:08:46.452Z,1007.77
2018-09-23T04:09:56.125Z,1007.74
2018-09-23T04:11:05.542Z,1007.71
2018-09-23T04:12:15.310Z,1007.68
2018-09-23T04:13:24.798Z,1007.68
2018-09-23T04:14:34.494Z,1007.66
2018-09-23T04:15:44.432Z,1007.67
2018-09-23T04:16:54.192Z,1007.65
2018-09-23T04:18:03.621Z,1007.61
2018-09-23T04:19:12.793Z,1007.58
2018-09-23T04:20:22.218Z,1007.6
2018-09-23T04:21:31.903Z,1007.56
2018-09-23T04:22:41.332Z,1007.56
2018-09-23T04:23:51.023Z,1007.5
2018-09-23T04:25:00.190Z,1007.48
2018-09-23T04:26:09.613Z,1007.51
2018-09-23T04:27:19.055Z,1007.54
2018-09-23T04:28:28.236Z,1007.56
2018-09-23T04:29:37.394Z,1007.56
2018-09-23T04:30:47.336Z,1007.54
2018-09-23T04:31:56.762Z,1007.55
2018-09-23T04:33:05.938Z,1007.54
2018-09-23T04:34:15.618Z,1007.52
2018-09-23T04:35:25.061Z,1007.53
2018-09-23T04:36:34.752Z,1007.46
2018-09-23T04:37:44.433Z,1007.51
2018-09-23T04:38:53.856Z,1007.5
2018-09-23T04:40:03.593Z,1007.44
2018-09-23T04:41:13.020Z,1007.41
2018-09-23T04:42:22.709Z,1007.38
2018-09-23T04:43:32.393Z,1007.34
2018-09-23T04:44:42.106Z,1007.26
2018-09-23T04:45:51.942Z,1007.23
2018-09-23T04:47:01.361Z,1007.24
2018-09-23T04:48:10.813Z,1007.27
2018-09-23T04:49:19.982Z,1007.2
2018-09-23T04:50:29.140Z,1007.2
2018-09-23T04:51:38.299Z,1007.13
2018-09-23T04:52:47.732Z,1007.13
2018-09-23T04:53:56.910Z,1007.17
2018-09-23T04:55:06.345Z,1007.1
2018-09-23T04:56:16.412Z,1007.1
2018-09-23T04:57:25.823Z,1007.08
2018-09-23T04:58:35.753Z,1007.1
2018-09-23T04:59:44.915Z,1007.11
2018-09-23T05:00:54.605Z,1007.13
2018-09-23T05:02:04.019Z,1007.12
2018-09-23T05:03:13.440Z,1007.11
2018-09-23T05:04:22.889Z,1007.12
2018-09-23T05:05:32.605Z,1007.08
2018-09-23T05:06:41.777Z,1007.07
2018-09-23T05:07:51.468Z,1007.11
2018-09-23T05:09:00.633Z,1007.1
2018-09-23T05:10:10.308Z,1007.1
2018-09-23T05:11:19.989Z,1007.08
2018-09-23T05:12:29.408Z,1007.05
2018-09-23T05:13:38.311Z,1007.05
2018-09-23T05:14:47.478Z,1007.02
2018-09-23T05:15:56.916Z,1006.97
2018-09-23T05:17:06.602Z,1007.01
2018-09-23T05:18:16.020Z,1006.94
2018-09-23T05:19:25.720Z,1006.93
2018-09-23T05:20:35.164Z,1006.95
2018-09-23T05:21:44.565Z,1007.02
2018-09-23T05:22:53.736Z,1006.99
2018-09-23T05:24:03.429Z,1006.99
2018-09-23T05:25:12.620Z,1007.06
2018-09-23T05:26:21.765Z,1007.01
2018-09-23T05:27:31.691Z,1007.01
2018-09-23T05:28:41.364Z,1007.04
2018-09-23T05:29:50.518Z,1006.97
2018-09-23T05:30:59.705Z,1007.02
2018-09-23T05:32:09.404Z,1006.98
2018-09-23T05:33:18.579Z,1006.96
2018-09-23T05:34:27.783Z,1006.95
2018-09-23T05:35:37.824Z,1006.97
2018-09-23T05:36:47.517Z,1006.93
2018-09-23T05:37:56.964Z,1006.89
2018-09-23T05:39:06.631Z,1006.91
2018-09-23T05:40:15.521Z,1006.86
2018-09-23T05:41:24.675Z,1006.85
2018-09-23T05:42:33.343Z,1006.88
2018-09-23T05:43:43.021Z,1006.87
2018-09-23T05:44:52.545Z,1006.83
2018-09-23T05:46:01.964Z,1006.87
2018-09-23T05:47:11.137Z,1006.84
2018-09-23T05:48:20.981Z,1006.81
2018-09-23T05:49:30.401Z,1006.8
2018-09-23T05:50:39.817Z,1006.79
2018-09-23T05:51:48.991Z,1006.75
2018-09-23T05:52:58.417Z,1006.68
2018-09-23T05:54:07.985Z,1006.76
2018-09-23T05:55:17.408Z,1006.73
2018-09-23T05:56:26.831Z,1006.75
2018-09-23T05:57:36.537Z,1006.76
2018-09-23T05:58:45.947Z,1006.76
2018-09-23T05:59:54.856Z,1006.76
2018-09-23T06:01:04.515Z,1006.74
2018-09-23T06:02:13.932Z,1006.72
2018-09-23T06:03:22.828Z,1006.67
2018-09-23T06:04:32.265Z,1006.63
2018-09-23T06:05:41.678Z,1006.65
2018-09-23T06:06:50.851Z,1006.59
2018-09-23T06:08:00.015Z,1006.58
2018-09-23T06:09:09.443Z,1006.54
2018-09-23T06:10:18.871Z,1006.55
2018-09-23T06:11:28.048Z,1006.54
2018-09-23T06:12:37.200Z,1006.54
2018-09-23T06:13:46.620Z,1006.58
2018-09-23T06:14:56.280Z,1006.55
2018-09-23T06:16:05.692Z,1006.53
2018-09-23T06:17:15.376Z,1006.51
2018-09-23T06:18:24.843Z,1006.52
2018-09-23T06:19:34.548Z,1006.48
2018-09-23T06:20:44.012Z,1006.48
2018-09-23T06:21:53.164Z,1006.48
2018-09-23T06:23:02.849Z,1006.47
2018-09-23T06:24:12.281Z,1006.49
2018-09-23T06:25:21.496Z,1006.49
2018-09-23T06:26:31.276Z,1006.51
2018-09-23T06:27:41.230Z,1006.53
2018-09-23T06:28:50.125Z,1006.51
2018-09-23T06:29:59.820Z,1006.49
2018-09-23T06:31:09.227Z,1006.5
2018-09-23T06:32:18.386Z,1006.53
2018-09-23T06:33:27.279Z,1006.58
2018-09-23T06:34:36.715Z,1006.59
2018-09-23T06:35:46.406Z,1006.56
2018-09-23T06:36:56.341Z,1006.52
2018-09-23T06:38:06.589Z,1006.5
2018-09-23T06:39:15.488Z,1006.42
2018-09-23T06:40:24.917Z,1006.36
2018-09-23T06:41:34.589Z,1006.27
2018-09-23T06:42:44.015Z,1006.19
2018-09-23T06:43:53.690Z,1006.22
2018-09-23T06:45:02.862Z,1006.24
2018-09-23T06:46:12.298Z,1006.26
2018-09-23T06:47:22.237Z,1006.27
2018-09-23T06:48:32.197Z,1006.24
2018-09-23T06:49:41.612Z,1006.36
2018-09-23T06:50:50.514Z,1006.37
2018-09-23T06:52:00.038Z,1006.37
2018-09-23T06:53:09.462Z,1006.41
2018-09-23T06:54:19.155Z,1006.39
2018-09-23T06:55:29.017Z,1006.34
2018-09-23T06:56:38.432Z,1006.31
2018-09-23T06:57:48.108Z,1006.29
2018-09-23T06:58:57.531Z,1006.32
2018-09-23T07:00:07.197Z,1006.3
2018-09-23T07:01:16.352Z,1006.26
2018-09-23T07:02:26.024Z,1006.3
2018-09-23T07:03:34.923Z,1006.27
2018-09-23T07:04:44.181Z,1006.25
2018-09-23T07:05:53.471Z,1006.25
2018-09-23T07:07:02.395Z,1006.26
2018-09-23T07:08:11.558Z,1006.21
2018-09-23T07:09:20.970Z,1006.19
2018-09-23T07:10:30.441Z,1006.2
2018-09-23T07:11:40.191Z,1006.16
2018-09-23T07:12:49.662Z,1006.14
2018-09-23T07:13:58.579Z,1006.17
2018-09-23T07:15:08.010Z,1006.16
2018-09-23T07:16:17.419Z,1006.15
2018-09-23T07:17:26.870Z,1006.13
2018-09-23T07:18:36.318Z,1006.14
2018-09-23T07:19:45.495Z,1006.12
2018-09-23T07:20:54.452Z,1006.15
2018-09-23T07:22:16.353Z,1006.12
2018-09-23T07:23:25.778Z,1006.16
2018-09-23T07:24:35.218Z,1006.2
2018-09-23T07:25:44.468Z,1006.12
2018-09-23T07:26:53.422Z,1006.11
2018-09-23T07:28:02.840Z,1006.13
2018-09-23T07:29:12.521Z,1006.13
2018-09-23T07:30:21.938Z,1006.14
2018-09-23T07:31:31.136Z,1006.15
2018-09-23T07:32:40.806Z,1006.16
2018-09-23T07:33:50.736Z,1006.16
2018-09-23T07:35:00.436Z,1006.15
2018-09-23T07:36:09.605Z,1006.11
2018-09-23T07:37:18.783Z,1006.09
2018-09-23T07:38:27.944Z,1006.08
2018-09-23T07:39:37.458Z,1005.99
2018-09-23T07:40:47.293Z,1006.01
2018-09-23T07:41:57.236Z,1005.98
2018-09-23T07:43:06.399Z,1005.93
2018-09-23T07:44:15.823Z,1005.98
2018-09-23T07:45:25.499Z,1005.99
2018-09-23T07:46:34.927Z,1005.99
2018-09-23T07:47:44.607Z,1006.06
2018-09-23T07:48:54.331Z,1006.1
2018-09-23T07:50:03.739Z,1006.11
2018-09-23T07:51:12.907Z,1006.12
2018-09-23T07:52:22.573Z,1006.08
2018-09-23T07:53:31.998Z,1006.1
2018-09-23T07:54:41.159Z,1006.08
2018-09-23T07:55:50.837Z,1006.12
2018-09-23T07:57:00.268Z,1006.12
2018-09-23T07:58:09.946Z,1006.11
2018-09-23T07:59:19.643Z,1006.11
2018-09-23T08:00:28.813Z,1006.11
2018-09-23T08:01:38.787Z,1006.08
2018-09-23T08:02:47.970Z,1006.06
2018-09-23T08:03:56.926Z,1006.02
2018-09-23T08:05:06.856Z,1006.05
2018-09-23T08:06:15.762Z,1005.98
2018-09-23T08:07:25.460Z,1005.97
2018-09-23T08:08:34.637Z,1005.97
2018-09-23T08:09:44.319Z,1005.98
2018-09-23T08:10:55.431Z,1005.95
2018-09-23T08:12:04.696Z,1005.98
2018-09-23T08:13:14.711Z,1006.01
2018-09-23T08:14:25.114Z,1006.01
2018-09-23T08:15:37.110Z,1005.98
2018-09-23T08:16:47.070Z,1005.97
2018-09-23T08:17:56.691Z,1006
2018-09-23T08:19:05.693Z,1006.01
2018-09-23T08:20:16.113Z,1006.03
2018-09-23T08:21:27.118Z,1005.96
2018-09-23T08:22:36.295Z,1005.92
2018-09-23T08:23:45.474Z,1005.93
2018-09-23T08:24:54.936Z,1005.83
2018-09-23T08:26:04.558Z,1005.74
2018-09-23T08:27:13.975Z,1005.72
2018-09-23T08:28:23.437Z,1005.71
2018-09-23T08:29:32.851Z,1005.69
2018-09-23T08:30:42.567Z,1005.69
2018-09-23T08:31:51.999Z,1005.68
2018-09-23T08:33:01.461Z,1005.71
2018-09-23T08:34:11.103Z,1005.74
2018-09-23T08:35:20.293Z,1005.71
2018-09-23T08:36:29.964Z,1005.73
2018-09-23T08:37:39.423Z,1005.72
2018-09-23T08:38:49.125Z,1005.73
2018-09-23T08:39:58.820Z,1005.69
2018-09-23T08:41:08.788Z,1005.69
2018-09-23T08:42:18.221Z,1005.63
2018-09-23T08:43:27.426Z,1005.62
2018-09-23T08:44:37.108Z,1005.64
2018-09-23T08:45:46.796Z,1005.66
2018-09-23T08:46:56.761Z,1005.67
2018-09-23T08:48:06.351Z,1005.72
2018-09-23T08:49:16.641Z,1005.71
2018-09-23T08:50:25.854Z,1005.65
2018-09-23T08:51:35.334Z,1005.61
2018-09-23T08:52:44.547Z,1005.53
2018-09-23T08:53:53.773Z,1005.49
2018-09-23T08:55:03.446Z,1005.46
2018-09-23T08:56:12.620Z,1005.43
2018-09-23T08:57:22.094Z,1005.45
2018-09-23T08:58:31.831Z,1005.44
2018-09-23T08:59:40.755Z,1005.4
2018-09-23T09:00:50.173Z,1005.39
2018-09-23T09:01:59.610Z,1005.37
2018-09-23T09:03:09.332Z,1005.37
2018-09-23T09:04:19.010Z,1005.32
2018-09-23T09:05:28.200Z,1005.29
2018-09-23T09:06:37.797Z,1005.35
2018-09-23T09:07:47.530Z,1005.27
2018-09-23T09:08:57.246Z,1005.26
2018-09-23T09:10:06.926Z,1005.23
2018-09-23T09:11:16.351Z,1005.19
2018-09-23T09:12:25.608Z,1005.19
2018-09-23T09:13:35.434Z,1005.14
2018-09-23T09:14:44.924Z,1005.13
2018-09-23T09:15:54.605Z,1005.1
2018-09-23T09:17:04.105Z,1005.06
2018-09-23T09:18:13.682Z,1005.05
2018-09-23T09:19:23.801Z,1004.96
2018-09-23T09:20:32.972Z,1004.93
2018-09-23T09:21:42.672Z,1004.94
2018-09-23T09:22:52.114Z,1004.92
2018-09-23T09:24:01.379Z,1004.87
2018-09-23T09:25:10.877Z,1004.81
2018-09-23T09:26:20.578Z,1004.76
2018-09-23T09:27:30.286Z,1004.75
2018-09-23T09:28:39.998Z,1004.75
2018-09-23T09:29:49.446Z,1004.73
2018-09-23T09:30:58.868Z,1004.76
2018-09-23T09:32:08.315Z,1004.73
2018-09-23T09:33:17.991Z,1004.76
2018-09-23T09:34:27.655Z,1004.72
2018-09-23T09:35:37.104Z,1004.73
2018-09-23T09:36:47.078Z,1004.68
2018-09-23T09:37:56.799Z,1004.63
2018-09-23T09:39:06.511Z,1004.65
2018-09-23T09:40:16.230Z,1004.68
2018-09-23T09:41:25.658Z,1004.66
2018-09-23T09:42:35.338Z,1004.6
2018-09-23T09:43:44.762Z,1004.58
2018-09-23T09:44:54.466Z,1004.53
2018-09-23T09:46:03.894Z,1004.53
2018-09-23T09:47:13.673Z,1004.53
2018-09-23T09:48:23.359Z,1004.54
2018-09-23T09:49:32.778Z,1004.54
2018-09-23T09:50:41.933Z,1004.55
2018-09-23T09:51:51.886Z,1004.59
2018-09-23T09:53:01.054Z,1004.6
2018-09-23T09:54:10.991Z,1004.52
2018-09-23T09:55:20.754Z,1004.5
2018-09-23T09:56:30.787Z,1004.5
2018-09-23T09:57:40.207Z,1004.5
2018-09-23T09:58:49.621Z,1004.42
2018-09-23T09:59:58.770Z,1004.38
2018-09-23T10:01:08.449Z,1004.41
2018-09-23T10:02:17.614Z,1004.35
2018-09-23T10:03:27.032Z,1004.32
2018-09-23T10:04:36.710Z,1004.22
2018-09-23T10:05:45.882Z,1004.23
2018-09-23T10:06:55.054Z,1004.22
2018-09-23T10:08:04.743Z,1004.16
2018-09-23T10:09:13.930Z,1004.08
2018-09-23T10:10:23.884Z,1004.1
2018-09-23T10:11:33.681Z,1003.99
2018-09-23T10:12:44.030Z,1003.86
2018-09-23T10:13:53.878Z,1003.8
2018-09-23T10:15:03.327Z,1003.74
2018-09-23T10:16:12.494Z,1003.78
2018-09-23T10:17:21.661Z,1003.74
2018-09-23T10:18:31.330Z,1003.71
2018-09-23T10:19:41.303Z,1003.66
2018-09-23T10:20:51.850Z,1003.67
2018-09-23T10:22:01.296Z,1003.61
2018-09-23T10:23:11.465Z,1003.56
2018-09-23T10:24:22.748Z,1003.54
2018-09-23T10:25:32.439Z,1003.51
2018-09-23T10:26:42.516Z,1003.48
2018-09-23T10:27:51.985Z,1003.43
2018-09-23T10:29:01.431Z,1003.38
2018-09-23T10:30:10.849Z,1003.4
2018-09-23T10:31:20.590Z,1003.35
2018-09-23T10:32:31.045Z,1003.31
2018-09-23T10:33:40.489Z,1003.27
2018-09-23T10:34:49.128Z,1003.29
2018-09-23T10:35:58.849Z,1003.28
2018-09-23T10:37:08.135Z,1003.18
2018-09-23T10:38:17.311Z,1003.19
2018-09-23T10:39:27.300Z,1003.11
2018-09-23T10:40:36.724Z,1003.07
2018-09-23T10:41:46.149Z,1003.02
2018-09-23T10:42:55.352Z,1003.01
2018-09-23T10:44:04.534Z,1003.02
2018-09-23T10:45:13.964Z,1003.09
2018-09-23T10:46:23.651Z,1003.11
2018-09-23T10:47:32.820Z,1003
2018-09-23T10:48:41.735Z,1002.93
2018-09-23T10:49:51.167Z,1002.89
2018-09-23T10:51:00.853Z,1002.82
2018-09-23T10:52:10.265Z,1002.85
2018-09-23T10:53:19.942Z,1002.86
2018-09-23T10:54:28.859Z,1002.76
2018-09-23T10:55:38.360Z,1002.76
2018-09-23T10:56:48.021Z,1002.82
2018-09-23T10:57:57.467Z,1002.88
2018-09-23T10:59:06.394Z,1002.88
2018-09-23T11:00:16.144Z,1003.01
2018-09-23T11:01:25.843Z,1003.06
2018-09-23T11:02:35.261Z,1003.13
2018-09-23T11:03:44.980Z,1003.18
2018-09-23T11:04:55.199Z,1003.17
2018-09-23T11:06:04.365Z,1003.12
2018-09-23T11:07:14.059Z,1003.09
2018-09-23T11:08:24.366Z,1002.99
2018-09-23T11:09:34.033Z,1002.81
2018-09-23T11:10:43.990Z,1002.72
2018-09-23T11:11:53.973Z,1002.79
2018-09-23T11:13:03.380Z,1002.91
2018-09-23T11:14:13.355Z,1002.95
2018-09-23T11:15:23.096Z,1003.11
2018-09-23T11:16:32.880Z,1003.15
2018-09-23T11:17:41.793Z,1003.09
2018-09-23T11:18:51.216Z,1003.05
2018-09-23T11:20:00.879Z,1002.97
2018-09-23T11:21:10.566Z,1002.87
2018-09-23T11:22:19.722Z,1002.83
2018-09-23T11:23:29.157Z,1002.78
2018-09-23T11:24:38.927Z,1002.7
2018-09-23T11:25:48.983Z,1002.65
2018-09-23T11:26:58.498Z,1002.47
2018-09-23T11:28:08.209Z,1002.36
2018-09-23T11:29:17.627Z,1002.34
2018-09-23T11:30:26.534Z,1002.35
2018-09-23T11:31:36.306Z,1002.29
2018-09-23T11:32:45.455Z,1002.35
2018-09-23T11:33:55.564Z,1002.44
2018-09-23T11:35:05.248Z,1002.51
2018-09-23T11:36:14.413Z,1002.51
2018-09-23T11:37:23.699Z,1002.45
2018-09-23T11:38:32.764Z,1002.3
2018-09-23T11:39:42.447Z,1002.23
2018-09-23T11:40:52.409Z,1002.16
2018-09-23T11:42:01.589Z,1002.05
2018-09-23T11:43:11.041Z,1001.99
2018-09-23T11:44:20.763Z,1001.96
2018-09-23T11:45:30.489Z,1001.85
2018-09-23T11:46:39.984Z,1001.73
2018-09-23T11:47:49.411Z,1001.63
2018-09-23T11:48:58.584Z,1001.54
2018-09-23T11:50:08.533Z,1001.44
2018-09-23T11:51:17.991Z,1001.34
2018-09-23T11:52:27.154Z,1001.23
2018-09-23T11:53:36.579Z,1001.18
2018-09-23T11:54:46.560Z,1001.19
2018-09-23T11:55:55.759Z,1001.19
2018-09-23T11:57:05.702Z,1001.15
2018-09-23T11:58:15.657Z,1001.19
2018-09-23T11:59:24.828Z,1001.2
2018-09-23T12:00:34.502Z,1001.26
2018-09-23T12:01:43.966Z,1001.39
2018-09-23T12:02:53.399Z,1001.69
2018-09-23T12:04:03.094Z,1002.05
2018-09-23T12:05:12.270Z,1002.25
2018-09-23T12:06:22.220Z,1002.41
2018-09-23T12:07:31.644Z,1002.46
2018-09-23T12:08:42.392Z,1002.43
2018-09-23T12:09:52.711Z,1002.29
2018-09-23T12:11:02.271Z,1002.08
2018-09-23T12:12:12.056Z,1001.82
2018-09-23T12:13:21.257Z,1001.51
2018-09-23T12:14:30.894Z,1001.39
2018-09-23T12:15:40.837Z,1001.32
2018-09-23T12:16:51.090Z,1001.23
2018-09-23T12:18:00.263Z,1001.23
2018-09-23T12:19:09.946Z,1001.11
2018-09-23T12:20:19.661Z,1001.05
2018-09-23T12:21:29.599Z,1001.04
2018-09-23T12:22:38.764Z,1001.12
2018-09-23T12:23:47.944Z,1001.28
2018-09-23T12:24:57.621Z,1001.54
2018-09-23T12:26:07.046Z,1001.71
2018-09-23T12:27:16.991Z,1001.89
2018-09-23T12:28:26.401Z,1001.84
2018-09-23T12:29:35.878Z,1001.74
2018-09-23T12:30:45.133Z,1001.6
2018-09-23T12:31:54.814Z,1001.62
2018-09-23T12:33:04.520Z,1001.56
2018-09-23T12:34:14.487Z,1001.71
2018-09-23T12:35:23.920Z,1001.76
2018-09-23T12:36:33.854Z,1001.93
2018-09-23T12:37:43.802Z,1002.1
2018-09-23T12:38:53.494Z,1002.17
2018-09-23T12:40:02.528Z,1002.22
2018-09-23T12:41:11.830Z,1002.17
2018-09-23T12:42:21.593Z,1002.13
2018-09-23T12:43:31.038Z,1002.21
2018-09-23T12:44:40.470Z,1002.43
2018-09-23T12:45:49.643Z,1002.54
2018-09-23T12:46:59.442Z,1002.67
2018-09-23T12:48:09.122Z,1002.75
2018-09-23T12:49:18.301Z,1002.93
2018-09-23T12:50:27.732Z,1002.68
2018-09-23T12:51:36.890Z,1002.64
2018-09-23T12:52:46.311Z,1002.71
2018-09-23T12:53:55.736Z,1002.71
2018-09-23T12:55:05.677Z,1002.65
2018-09-23T12:56:14.849Z,1002.72
2018-09-23T12:57:24.528Z,1002.92
2018-09-23T12:58:33.956Z,1003.17
2018-09-23T12:59:43.125Z,1003.33
2018-09-23T13:00:52.815Z,1003.38
2018-09-23T13:02:02.488Z,1003.35
2018-09-23T13:03:12.181Z,1003.29
2018-09-23T13:04:21.343Z,1003.16
2018-09-23T13:05:30.510Z,1002.91
2018-09-23T13:06:39.674Z,1002.75
2018-09-23T13:07:49.082Z,1002.83
2018-09-23T13:08:58.757Z,1002.83
2018-09-23T13:10:08.429Z,1002.94
2018-09-23T13:11:18.115Z,1003.13
2018-09-23T13:12:27.280Z,1003.11
2018-09-23T13:13:36.193Z,1003.05
2018-09-23T13:14:45.611Z,1003.02
2018-09-23T13:15:55.043Z,1002.99
2018-09-23T13:17:04.473Z,1003.02
2018-09-23T13:18:14.232Z,1003.05
2018-09-23T13:19:24.323Z,1003.05
2018-09-23T13:20:33.787Z,1003.19
2018-09-23T13:21:42.702Z,1003.37
2018-09-23T13:22:52.403Z,1003.47
2018-09-23T13:24:02.077Z,1003.57
2018-09-23T13:25:10.975Z,1003.64
2018-09-23T13:26:20.663Z,1003.73
2018-09-23T13:27:30.324Z,1003.6
2018-09-23T13:28:39.767Z,1003.55
2018-09-23T13:29:49.506Z,1003.76
2018-09-23T13:30:58.692Z,1003.84
2018-09-23T13:32:08.116Z,1003.91
2018-09-23T13:33:17.823Z,1003.87
2018-09-23T13:34:27.239Z,1003.97
2018-09-23T13:35:36.664Z,1004.11
2018-09-23T13:36:46.093Z,1004.06
2018-09-23T13:37:55.788Z,1004.1
2018-09-23T13:39:04.707Z,1003.8
2018-09-23T13:40:13.896Z,1003.48
2018-09-23T13:41:23.850Z,1003.29
2018-09-23T13:42:33.078Z,1003.33
2018-09-23T13:43:41.986Z,1003.44
2018-09-23T13:44:51.406Z,1003.49
2018-09-23T13:46:00.574Z,1003.57
2018-09-23T13:47:10.250Z,1003.42
2018-09-23T13:48:19.940Z,1003.17
2018-09-23T13:49:29.611Z,1003.06
2018-09-23T13:50:39.288Z,1003.05
2018-09-23T13:51:48.448Z,1003.33
2018-09-23T13:52:57.345Z,1003.59
2018-09-23T13:54:06.544Z,1003.64
2018-09-23T13:55:16.357Z,1003.64
2018-09-23T13:56:25.817Z,1003.77
2018-09-23T13:57:34.995Z,1003.89
2018-09-23T13:58:44.166Z,1003.8
2018-09-23T13:59:53.609Z,1003.74
2018-09-23T14:01:02.776Z,1003.77
2018-09-23T14:02:12.203Z,1003.67
2018-09-23T14:03:21.886Z,1003.66
2018-09-23T14:04:31.573Z,1003.83